This is the latest recevied weather packets stored in our database for station/object SQ5SUI-3. If no packets are shown the sender has not sent any weather packets the latest 10 day(s).
| Time | Temp. | Humidity | Pressure | Rain* | Wind** | Luminosity | Snow |
|---|---|---|---|---|---|---|---|
| 1777741260 | 27.78° C | 12% | 1006.1 hPa | 0 mm | - | - | - |
| 1777739458 | 27.22° C | 10% | 1006 hPa | 0 mm | - | - | - |
| 1777737658 | 27.78° C | 10% | 1005.7 hPa | 0 mm | - | - | - |
| 1777735859 | 26.11° C | 10% | 1005.1 hPa | 0 mm | - | - | - |
| 1777734059 | 27.22° C | 10% | 1004.5 hPa | 0 mm | - | - | - |
| 1777732259 | 25.56° C | 15% | 1004.1 hPa | 0 mm | - | - | - |
| 1777730459 | 26.67° C | 14% | 1003.6 hPa | 0 mm | - | - | - |
| 1777728660 | 25° C | 17% | 1003 hPa | 0 mm | - | - | - |
| 1777726859 | 26.11° C | 13% | 1002.4 hPa | 0 mm | - | - | - |
| 1777725059 | 25° C | 17% | 1001.5 hPa | 0 mm | - | - | - |
| 1777723260 | 25° C | 21% | 1000.9 hPa | 0 mm | - | - | - |
| 1777721458 | 22.78° C | 19% | 1000.7 hPa | 0 mm | - | - | - |
| 1777719659 | 22.22° C | 21% | 1000.3 hPa | 0 mm | - | - | - |
| 1777717859 | 23.33° C | 24% | 999.9 hPa | 0 mm | - | - | - |
| 1777716060 | 21.67° C | 25% | 999.6 hPa | 0 mm | - | - | - |
| 1777714260 | 22.78° C | 25% | 999.4 hPa | 0 mm | - | - | - |
| 1777712460 | 21.11° C | 29% | 999.2 hPa | 0 mm | - | - | - |
| 1777710660 | 21.67° C | 32% | 999 hPa | 0 mm | - | - | - |
| 1777708859 | 20° C | 36% | 998.9 hPa | 0 mm | - | - | - |
| 1777707059 | 19.44° C | 38% | 998.7 hPa | 0 mm | - | - | - |
| 1777705259 | 16.67° C | 43% | 998.5 hPa | 0 mm | - | - | - |
| 1777703459 | 15.56° C | 53% | 998.3 hPa | 0 mm | - | - | - |
| 1777701659 | 13.33° C | 61% | 998.5 hPa | 0 mm | - | - | - |
| 1777699859 | 11.67° C | 64% | 998.5 hPa | 0 mm | - | - | - |
| 1777698058 | 9.44° C | 73% | 998.4 hPa | 0 mm | - | - | - |
* Rain latest hour (hover to see other rain measurements)
** Current wind speed in m/s (hover to see current wind gust speed)